Terminal Aerodrome Forecast
Issued by NWS Northern Indiana

Home | Current Version | Previous Version | Graphics & Text | Print | Product List | Glossary On
Versions: 1 2 3 4 5 6 7 8 9 10 11 12 13 14 15 16 17 18 19 20 21 22 23 24
892
FTUS43 KIWX 211720
TAFFWA
TAF
KFWA 211720Z 2118/2218 23009KT P6SM SCT050 BKN150
     FM220400 22006KT P6SM VCTS BKN050CB
     FM220600 20007KT P6SM VCTS BKN200CB
     FM221200 22009KT 5SM -SHRA VCTS OVC035CB
     FM221600 25012KT P6SM SCT035 OVC070=

USA.gov is the U.S. government's official web portal to all federal, state and local government web resources and services.